createdAt,value
2018-10-15T00:01:14.311Z,51.90
2018-10-15T00:03:42.524Z,52.20
2018-10-15T00:06:10.785Z,52.10
2018-10-15T00:08:39.017Z,52.00
2018-10-15T00:11:07.183Z,52.20
2018-10-15T00:13:35.379Z,52.10
2018-10-15T00:16:03.732Z,52.10
2018-10-15T00:18:31.935Z,52.30
2018-10-15T00:21:00.101Z,52.10
2018-10-15T00:23:28.253Z,51.90
2018-10-15T00:25:56.465Z,51.80
2018-10-15T00:28:24.595Z,51.90
2018-10-15T00:30:52.783Z,52.10
2018-10-15T00:33:20.984Z,52.30
2018-10-15T00:35:49.169Z,52.20
2018-10-15T00:38:17.669Z,51.80
2018-10-15T00:40:45.875Z,52.00
2018-10-15T00:43:14.093Z,52.20
2018-10-15T00:45:42.241Z,52.10
2018-10-15T00:48:10.417Z,52.20
2018-10-15T00:50:38.557Z,52.20
2018-10-15T00:53:06.787Z,52.40
2018-10-15T00:55:34.909Z,52.30
2018-10-15T00:58:03.033Z,52.30
2018-10-15T01:00:31.247Z,53.00
2018-10-15T01:02:59.385Z,52.50
2018-10-15T01:05:27.587Z,52.60
2018-10-15T01:07:55.705Z,52.60
2018-10-15T01:10:23.845Z,52.40
2018-10-15T01:12:52.011Z,52.60
2018-10-15T01:15:20.207Z,52.50
2018-10-15T01:17:48.427Z,52.70
2018-10-15T01:20:16.562Z,52.30
2018-10-15T01:22:44.750Z,52.20
2018-10-15T01:25:12.935Z,52.10
2018-10-15T01:27:41.159Z,52.10
2018-10-15T01:30:10.275Z,52.40
2018-10-15T01:32:38.516Z,52.40
2018-10-15T01:35:06.692Z,52.30
2018-10-15T01:37:34.881Z,52.60
2018-10-15T01:40:03.053Z,52.70
2018-10-15T01:42:31.251Z,52.70
2018-10-15T01:45:06.443Z,53.00
2018-10-15T01:47:34.660Z,53.20
2018-10-15T01:50:02.893Z,53.20
2018-10-15T01:52:31.105Z,53.30
2018-10-15T01:54:59.358Z,53.20
2018-10-15T01:57:34.076Z,53.30
2018-10-15T02:00:02.243Z,53.30
2018-10-15T02:02:30.429Z,53.20
2018-10-15T02:04:58.597Z,53.00
2018-10-15T02:07:26.819Z,52.90
2018-10-15T02:09:54.999Z,53.30
2018-10-15T02:12:23.200Z,53.10
2018-10-15T02:14:51.389Z,53.30
2018-10-15T02:17:19.637Z,53.40
2018-10-15T02:19:47.853Z,53.10
2018-10-15T02:22:15.986Z,53.50
2018-10-15T02:24:44.197Z,53.50
2018-10-15T02:27:12.393Z,53.80
2018-10-15T02:29:40.923Z,53.90
2018-10-15T02:32:09.119Z,53.80
2018-10-15T02:34:37.311Z,53.80
2018-10-15T02:37:05.629Z,54.10
2018-10-15T02:39:33.821Z,54.10
2018-10-15T02:42:01.979Z,53.90
2018-10-15T02:44:30.119Z,54.00
2018-10-15T02:46:58.345Z,54.20
2018-10-15T02:49:26.535Z,53.80
2018-10-15T02:51:54.706Z,54.10
2018-10-15T02:54:22.902Z,54.00
2018-10-15T02:56:51.072Z,54.20
2018-10-15T02:59:19.305Z,54.20
2018-10-15T03:01:47.686Z,54.30
2018-10-15T03:04:15.832Z,54.50
2018-10-15T03:06:44.014Z,54.20
2018-10-15T03:09:12.512Z,54.10
2018-10-15T03:11:40.701Z,54.20
2018-10-15T03:14:09.084Z,54.00
2018-10-15T03:16:37.298Z,54.00
2018-10-15T03:19:05.624Z,54.20
2018-10-15T03:21:33.810Z,54.70
2018-10-15T03:24:02.192Z,54.20
2018-10-15T03:26:30.413Z,54.10
2018-10-15T03:28:58.632Z,53.90
2018-10-15T03:31:26.853Z,53.70
2018-10-15T03:33:55.062Z,54.60
2018-10-15T03:36:23.271Z,53.50
2018-10-15T03:38:51.445Z,53.40
2018-10-15T03:41:19.664Z,53.50
2018-10-15T03:43:47.820Z,53.40
2018-10-15T03:46:16.026Z,53.20
2018-10-15T03:48:44.179Z,53.60
2018-10-15T03:51:12.382Z,53.30
2018-10-15T03:53:40.565Z,53.40
2018-10-15T03:56:08.811Z,53.30
2018-10-15T03:58:36.944Z,54.30
2018-10-15T04:01:05.176Z,53.70
2018-10-15T04:03:33.342Z,53.60
2018-10-15T04:06:01.548Z,53.90
2018-10-15T04:08:29.862Z,53.60
2018-10-15T04:10:57.985Z,53.50
2018-10-15T04:13:26.288Z,53.40
2018-10-15T04:15:54.534Z,53.60
2018-10-15T04:18:22.704Z,53.70
2018-10-15T04:20:51.024Z,53.90
2018-10-15T04:23:19.174Z,54.10
2018-10-15T04:25:47.390Z,54.50
2018-10-15T04:28:15.628Z,54.20
2018-10-15T04:30:43.874Z,54.30
2018-10-15T04:33:12.065Z,54.30
2018-10-15T04:35:40.350Z,54.40
2018-10-15T04:38:08.603Z,54.50
2018-10-15T04:40:36.835Z,54.80
2018-10-15T04:43:05.142Z,54.80
2018-10-15T04:45:33.314Z,54.90
2018-10-15T04:48:01.507Z,54.80
2018-10-15T04:50:29.679Z,55.10
2018-10-15T04:52:57.918Z,55.30
2018-10-15T04:55:26.219Z,55.20
2018-10-15T04:57:54.309Z,55.20
2018-10-15T05:00:22.560Z,55.50
2018-10-15T05:02:50.671Z,55.70
2018-10-15T05:05:18.917Z,56.10
2018-10-15T05:07:47.158Z,56.00
2018-10-15T05:10:15.837Z,56.40
2018-10-15T05:12:44.079Z,56.30
2018-10-15T05:15:12.722Z,56.20
2018-10-15T05:17:41.031Z,56.40
2018-10-15T05:20:10.798Z,56.70
2018-10-15T05:22:38.965Z,56.90
2018-10-15T05:25:07.448Z,56.90
2018-10-15T05:27:35.701Z,57.00
2018-10-15T05:37:28.525Z,56.60
2018-10-15T05:39:56.769Z,57.10
2018-10-15T05:42:25.008Z,57.20
2018-10-15T05:44:53.178Z,57.20
2018-10-15T05:47:21.392Z,57.50
2018-10-15T05:49:49.569Z,57.30
2018-10-15T05:52:17.767Z,57.10
2018-10-15T05:54:45.940Z,57.20
2018-10-15T05:57:14.173Z,57.20
2018-10-15T05:59:43.142Z,57.10
2018-10-15T06:02:11.357Z,57.20
2018-10-15T06:04:39.577Z,57.30
2018-10-15T06:07:07.767Z,57.50
2018-10-15T06:09:35.995Z,57.20
2018-10-15T06:12:04.207Z,57.10
2018-10-15T06:14:32.383Z,57.30
2018-10-15T06:17:00.595Z,57.30
2018-10-15T06:19:28.837Z,57.10
2018-10-15T06:21:57.010Z,57.10
2018-10-15T06:24:25.260Z,57.00
2018-10-15T06:26:53.455Z,56.90
2018-10-15T06:29:21.738Z,57.00
2018-10-15T06:31:49.910Z,56.60
2018-10-15T06:34:18.170Z,56.50
2018-10-15T06:36:46.360Z,56.40
2018-10-15T06:39:14.611Z,56.20
2018-10-15T06:41:42.804Z,56.10
2018-10-15T06:44:11.040Z,56.00
2018-10-15T06:46:39.192Z,55.70
2018-10-15T06:49:07.448Z,55.70
2018-10-15T06:51:35.704Z,55.40
2018-10-15T06:54:03.888Z,55.50
2018-10-15T06:56:32.130Z,55.30
2018-10-15T06:59:00.382Z,55.30
2018-10-15T07:01:28.623Z,55.10
2018-10-15T07:03:56.852Z,55.20
2018-10-15T07:06:25.142Z,54.90
2018-10-15T07:08:53.311Z,55.00
2018-10-15T07:11:21.468Z,54.40
2018-10-15T07:13:49.713Z,54.30
2018-10-15T07:16:17.965Z,54.10
2018-10-15T07:18:46.127Z,53.60
2018-10-15T07:21:14.355Z,53.10
2018-10-15T07:23:42.594Z,53.00
2018-10-15T07:26:10.793Z,52.80
2018-10-15T07:28:39.020Z,52.40
2018-10-15T07:31:07.177Z,51.90
2018-10-15T07:33:35.382Z,51.80
2018-10-15T07:36:03.583Z,51.70
2018-10-15T07:38:31.776Z,51.40
2018-10-15T07:40:59.947Z,50.80
2018-10-15T07:43:28.169Z,51.10
2018-10-15T07:45:56.473Z,50.10
2018-10-15T07:48:24.628Z,49.60
2018-10-15T07:50:52.924Z,49.20
2018-10-15T07:53:21.166Z,48.90
2018-10-15T07:55:49.371Z,48.80
2018-10-15T07:58:17.774Z,48.90
2018-10-15T08:00:45.924Z,48.30
2018-10-15T08:03:14.096Z,48.20
2018-10-15T08:05:42.361Z,47.90
2018-10-15T08:08:10.596Z,47.60
2018-10-15T08:10:38.851Z,47.30
2018-10-15T08:13:07.080Z,46.70
2018-10-15T08:15:35.361Z,46.20
2018-10-15T08:18:03.455Z,46.10
2018-10-15T08:20:31.725Z,45.90
2018-10-15T08:22:59.948Z,45.90
2018-10-15T08:25:28.187Z,45.60
2018-10-15T08:27:56.398Z,45.00
2018-10-15T08:30:24.596Z,44.80
2018-10-15T08:32:52.768Z,44.90
2018-10-15T08:35:20.975Z,44.70
2018-10-15T08:37:49.175Z,44.30
2018-10-15T08:40:18.695Z,44.40
2018-10-15T08:42:48.229Z,43.90
2018-10-15T08:45:18.687Z,43.60
2018-10-15T08:47:47.523Z,43.10
2018-10-15T08:50:16.374Z,42.70
2018-10-15T08:52:46.474Z,42.30
2018-10-15T08:55:14.701Z,41.10
2018-10-15T08:57:42.894Z,39.20
2018-10-15T09:00:13.432Z,38.30
2018-10-15T09:02:41.670Z,36.80
2018-10-15T09:05:11.238Z,35.20
2018-10-15T09:07:40.378Z,35.00
2018-10-15T09:10:10.046Z,35.60
2018-10-15T09:12:38.249Z,34.90
2018-10-15T09:15:09.619Z,34.50
2018-10-15T09:17:37.813Z,33.80
2018-10-15T09:20:06.362Z,34.00
2018-10-15T09:22:34.460Z,33.90
2018-10-15T09:25:02.748Z,33.30
2018-10-15T09:27:31.307Z,33.30
2018-10-15T09:29:59.473Z,33.70
2018-10-15T09:32:27.635Z,33.60
2018-10-15T09:34:55.943Z,34.10
2018-10-15T09:37:24.119Z,33.70
2018-10-15T09:39:52.364Z,33.60
2018-10-15T09:42:20.570Z,33.00
2018-10-15T09:44:48.884Z,32.80
2018-10-15T09:47:17.232Z,32.10
2018-10-15T09:49:45.483Z,32.70
2018-10-15T09:52:13.697Z,33.60
2018-10-15T09:54:41.958Z,33.70
2018-10-15T09:57:10.199Z,34.20
2018-10-15T09:59:38.399Z,33.70
2018-10-15T10:02:08.395Z,33.30
2018-10-15T10:04:37.041Z,32.70
2018-10-15T10:07:05.586Z,32.60
2018-10-15T10:09:33.834Z,32.30
2018-10-15T10:12:02.139Z,32.20
2018-10-15T10:14:30.417Z,31.20
2018-10-15T10:16:59.142Z,31.30
2018-10-15T10:19:27.278Z,31.00
2018-10-15T10:21:55.577Z,31.40
2018-10-15T10:24:23.844Z,30.10
2018-10-15T10:26:52.389Z,29.90
2018-10-15T10:29:27.198Z,30.60
2018-10-15T10:31:55.450Z,31.20
2018-10-15T10:34:25.095Z,31.40
2018-10-15T10:37:00.964Z,32.00
2018-10-15T10:39:29.130Z,32.40
2018-10-15T10:41:57.355Z,32.70
2018-10-15T10:44:25.627Z,33.20
2018-10-15T10:46:53.838Z,33.50
2018-10-15T10:49:22.085Z,33.80
2018-10-15T10:51:50.409Z,34.00
2018-10-15T10:54:18.592Z,34.10
2018-10-15T10:56:46.800Z,34.00
2018-10-15T10:59:15.041Z,34.10
2018-10-15T11:01:43.308Z,33.70
2018-10-15T11:04:11.492Z,33.60
2018-10-15T11:06:39.750Z,33.10
2018-10-15T11:09:08.887Z,32.80
2018-10-15T11:11:37.142Z,32.50
2018-10-15T11:14:05.428Z,32.20
2018-10-15T11:16:33.668Z,31.40
2018-10-15T11:19:02.089Z,31.00
2018-10-15T11:21:30.247Z,30.10
2018-10-15T11:23:58.575Z,30.00
2018-10-15T11:26:26.788Z,30.00
2018-10-15T11:28:55.441Z,30.00
2018-10-15T11:31:23.705Z,30.00
2018-10-15T11:33:51.958Z,30.20
2018-10-15T11:36:20.142Z,30.60
2018-10-15T11:38:48.337Z,30.80
2018-10-15T11:41:16.579Z,30.90
2018-10-15T11:43:44.771Z,30.70
2018-10-15T11:46:13.020Z,30.80
2018-10-15T11:48:41.234Z,30.70
2018-10-15T11:51:09.426Z,30.80
2018-10-15T11:53:37.781Z,30.60
2018-10-15T11:56:05.863Z,29.90
2018-10-15T11:58:34.152Z,28.90
2018-10-15T12:01:02.274Z,28.40
2018-10-15T12:03:30.486Z,28.10
2018-10-15T12:05:58.722Z,28.00
2018-10-15T12:08:26.980Z,28.30
2018-10-15T12:10:55.202Z,29.10
2018-10-15T12:13:23.504Z,29.20
2018-10-15T12:15:51.778Z,29.50
2018-10-15T12:18:19.974Z,29.60
2018-10-15T12:20:48.188Z,29.80
2018-10-15T12:23:16.362Z,30.30
2018-10-15T12:25:44.541Z,31.00
2018-10-15T12:28:12.943Z,32.00
2018-10-15T12:30:41.130Z,32.40
2018-10-15T12:33:09.391Z,32.50
2018-10-15T12:35:37.652Z,32.10
2018-10-15T12:38:05.881Z,32.10
2018-10-15T12:40:34.142Z,31.10
2018-10-15T12:43:02.372Z,30.20
2018-10-15T12:45:35.934Z,30.00
2018-10-15T12:48:04.106Z,30.00
2018-10-15T12:50:32.298Z,29.60
2018-10-15T12:53:00.503Z,29.40
2018-10-15T12:55:28.787Z,29.20
2018-10-15T12:57:57.070Z,29.00
2018-10-15T13:00:25.232Z,29.10
2018-10-15T13:02:53.496Z,29.40
2018-10-15T13:05:24.886Z,29.60
2018-10-15T13:07:53.885Z,29.70
2018-10-15T13:10:22.464Z,29.80
2018-10-15T13:12:50.716Z,29.80
2018-10-15T13:15:19.328Z,30.00
2018-10-15T13:17:54.895Z,30.00
2018-10-15T13:20:23.487Z,30.00
2018-10-15T13:22:51.920Z,30.00
2018-10-15T13:25:20.309Z,30.00
2018-10-15T13:27:48.558Z,30.00
2018-10-15T13:30:16.841Z,30.00
2018-10-15T13:32:45.660Z,29.50
2018-10-15T13:35:15.122Z,29.40
2018-10-15T13:37:47.907Z,29.20
2018-10-15T13:40:16.155Z,29.30
2018-10-15T13:42:44.365Z,29.20
2018-10-15T13:45:13.685Z,29.60
2018-10-15T13:47:41.843Z,29.60
2018-10-15T13:50:10.785Z,29.70
2018-10-15T13:52:39.585Z,29.90
2018-10-15T13:55:08.690Z,30.00
2018-10-15T13:57:36.955Z,30.10
2018-10-15T14:00:28.987Z,30.20
2018-10-15T14:02:57.173Z,30.30
2018-10-15T14:05:25.415Z,30.30
2018-10-15T14:07:53.617Z,30.50
2018-10-15T14:10:21.789Z,30.70
2018-10-15T14:12:49.985Z,30.50
2018-10-15T14:15:18.212Z,30.80
2018-10-15T14:17:46.661Z,31.00
2018-10-15T14:20:14.861Z,31.10
2018-10-15T14:22:43.901Z,31.20
2018-10-15T14:25:13.048Z,31.50
2018-10-15T14:27:41.301Z,31.80
2018-10-15T14:30:17.713Z,32.00
2018-10-15T14:32:46.019Z,32.10
2018-10-15T14:35:14.953Z,32.40
2018-10-15T14:37:43.625Z,32.80
2018-10-15T14:40:14.155Z,32.70
2018-10-15T14:42:42.561Z,32.40
2018-10-15T14:45:11.963Z,32.70
2018-10-15T14:47:40.324Z,32.90
2018-10-15T14:50:14.759Z,33.00
2018-10-15T14:52:44.567Z,33.10
2018-10-15T14:55:12.933Z,33.30
2018-10-15T14:57:41.171Z,33.40
2018-10-15T15:00:10.639Z,33.60
2018-10-15T15:02:38.838Z,33.60
2018-10-15T15:05:07.826Z,34.00
2018-10-15T15:07:36.115Z,34.00
2018-10-15T15:10:15.753Z,34.00
2018-10-15T15:12:55.729Z,34.20
2018-10-15T15:15:24.192Z,34.40
2018-10-15T15:17:52.428Z,34.70
2018-10-15T15:20:20.626Z,34.60
2018-10-15T15:22:48.832Z,34.80
2018-10-15T15:25:17.086Z,35.00
2018-10-15T15:27:45.280Z,35.10
2018-10-15T15:30:13.827Z,35.50
2018-10-15T15:32:42.155Z,35.90
2018-10-15T15:35:11.735Z,35.70
2018-10-15T15:37:40.498Z,36.00
2018-10-15T15:40:10.192Z,36.00
2018-10-15T15:42:38.662Z,36.30
2018-10-15T15:45:08.422Z,36.40
2018-10-15T15:47:36.662Z,36.50
2018-10-15T15:50:05.109Z,36.40
2018-10-15T15:52:33.277Z,36.60
2018-10-15T15:55:01.539Z,36.80
2018-10-15T15:57:29.834Z,37.00
2018-10-15T15:59:58.181Z,36.90
2018-10-15T16:02:26.398Z,37.20
2018-10-15T16:04:54.626Z,37.40
2018-10-15T16:07:22.869Z,37.60
2018-10-15T16:09:51.088Z,37.90
2018-10-15T16:12:19.306Z,37.80
2018-10-15T16:14:47.584Z,38.00
2018-10-15T16:17:15.774Z,38.30
2018-10-15T16:19:43.999Z,38.30
2018-10-15T16:22:12.214Z,38.60
2018-10-15T16:24:40.448Z,38.50
2018-10-15T16:27:08.688Z,38.40
2018-10-15T16:29:37.088Z,38.90
2018-10-15T16:32:05.321Z,38.80
2018-10-15T16:34:33.563Z,38.90
2018-10-15T16:37:01.762Z,39.00
2018-10-15T16:39:29.972Z,39.10
2018-10-15T16:41:58.190Z,39.20
2018-10-15T16:44:26.626Z,39.50
2018-10-15T16:46:54.908Z,39.30
2018-10-15T16:49:23.073Z,39.50
2018-10-15T16:51:51.381Z,39.50
2018-10-15T16:54:19.576Z,39.50
2018-10-15T16:56:47.864Z,39.70
2018-10-15T16:59:16.119Z,40.00
2018-10-15T17:01:44.328Z,40.00
2018-10-15T17:04:12.564Z,40.10
2018-10-15T17:06:40.844Z,40.50
2018-10-15T17:09:13.902Z,40.70
2018-10-15T17:11:42.156Z,41.30
2018-10-15T17:14:10.601Z,40.90
2018-10-15T17:16:39.005Z,41.30
2018-10-15T17:19:08.442Z,41.30
2018-10-15T17:21:36.994Z,41.40
2018-10-15T17:24:05.648Z,41.60
2018-10-15T17:26:34.058Z,41.50
2018-10-15T17:29:02.411Z,41.60
2018-10-15T17:31:30.665Z,41.60
2018-10-15T17:33:58.938Z,41.60
2018-10-15T17:36:27.320Z,41.90
2018-10-15T17:38:56.036Z,41.70
2018-10-15T17:41:24.273Z,41.80
2018-10-15T17:43:52.525Z,41.90
2018-10-15T17:46:21.840Z,42.10
2018-10-15T17:48:50.066Z,42.00
2018-10-15T17:51:18.455Z,42.20
2018-10-15T17:53:46.669Z,42.30
2018-10-15T17:56:15.027Z,42.40
2018-10-15T17:58:43.290Z,42.50
2018-10-15T18:01:13.329Z,42.70
2018-10-15T18:03:42.019Z,42.60
2018-10-15T18:06:10.327Z,42.50
2018-10-15T18:08:38.605Z,42.70
2018-10-15T18:11:06.920Z,42.70
2018-10-15T18:13:36.510Z,42.70
2018-10-15T18:16:05.406Z,42.50
2018-10-15T18:18:34.366Z,42.30
2018-10-15T18:21:02.918Z,42.20
2018-10-15T18:23:31.776Z,42.20
2018-10-15T18:26:00.117Z,42.30
2018-10-15T18:28:28.665Z,42.50
2018-10-15T18:30:59.145Z,42.50
2018-10-15T18:33:27.575Z,42.80
2018-10-15T18:35:55.844Z,43.00
2018-10-15T18:41:18.987Z,43.40
2018-10-15T18:43:48.327Z,43.70
2018-10-15T18:46:16.687Z,43.80
2018-10-15T18:48:44.972Z,43.70
2018-10-15T18:51:13.579Z,44.00
2018-10-15T18:53:43.903Z,44.20
2018-10-15T18:56:12.179Z,44.30
2018-10-15T18:58:40.527Z,44.50
2018-10-15T19:01:08.928Z,44.70
2018-10-15T19:03:39.949Z,44.70
2018-10-15T19:06:08.221Z,44.80
2018-10-15T19:08:36.688Z,45.10
2018-10-15T19:11:05.597Z,45.10
2018-10-15T19:13:33.913Z,45.20
2018-10-15T19:16:02.267Z,45.10
2018-10-15T19:18:30.674Z,45.10
2018-10-15T19:22:37.216Z,44.90
2018-10-15T19:25:06.661Z,45.10
2018-10-15T19:27:34.939Z,45.10
2018-10-15T19:30:13.415Z,45.10
2018-10-15T19:32:42.319Z,45.00
2018-10-15T19:35:12.503Z,45.20
2018-10-15T19:37:41.549Z,45.20
2018-10-15T19:40:10.575Z,45.30
2018-10-15T19:42:38.980Z,45.20
2018-10-15T19:45:07.643Z,45.30
2018-10-15T19:47:36.744Z,45.40
2018-10-15T19:50:06.429Z,45.30
2018-10-15T19:52:34.952Z,45.20
2018-10-15T19:55:03.331Z,45.20
2018-10-15T19:57:31.800Z,45.00
2018-10-15T20:00:00.070Z,44.90
2018-10-15T20:02:28.347Z,44.80
2018-10-15T20:04:56.701Z,45.00
2018-10-15T20:07:25.037Z,44.90
2018-10-15T20:09:53.535Z,46.00
2018-10-15T20:12:21.753Z,45.50
2018-10-15T20:14:50.033Z,45.50
2018-10-15T20:17:18.456Z,45.80
2018-10-15T20:19:46.808Z,45.90
2018-10-15T20:22:15.205Z,46.10
2018-10-15T20:24:43.505Z,46.00
2018-10-15T20:27:12.003Z,46.30
2018-10-15T20:29:40.507Z,46.40
2018-10-15T20:32:09.078Z,46.20
2018-10-15T20:34:37.481Z,46.20
2018-10-15T20:37:05.915Z,46.30
2018-10-15T20:39:34.246Z,46.10
2018-10-15T20:42:02.570Z,46.60
2018-10-15T20:44:37.421Z,46.50
2018-10-15T20:47:05.860Z,46.40
2018-10-15T20:49:34.179Z,46.50
2018-10-15T20:52:02.488Z,46.60
2018-10-15T20:54:30.816Z,46.50
2018-10-15T20:56:59.202Z,46.50
2018-10-15T20:59:27.502Z,46.60
2018-10-15T21:01:55.854Z,46.90
2018-10-15T21:04:24.225Z,47.20
2018-10-15T21:06:52.442Z,47.50
2018-10-15T21:09:20.689Z,47.50
2018-10-15T21:11:48.914Z,47.40
2018-10-15T21:14:17.218Z,47.60
2018-10-15T21:16:45.454Z,47.60
2018-10-15T21:19:13.752Z,47.70
2018-10-15T21:21:42.030Z,47.70
2018-10-15T21:24:10.248Z,47.80
2018-10-15T21:26:38.667Z,47.80
2018-10-15T21:29:07.114Z,47.80
2018-10-15T21:34:10.099Z,48.10
2018-10-15T21:36:38.301Z,47.90
2018-10-15T21:39:07.815Z,48.00
2018-10-15T21:41:36.222Z,48.10
2018-10-15T21:44:05.182Z,48.10
2018-10-15T21:46:36.410Z,48.40
2018-10-15T21:49:05.593Z,48.70
2018-10-15T21:51:36.584Z,48.90
2018-10-15T21:54:05.466Z,48.60
2018-10-15T21:56:34.022Z,48.90
2018-10-15T21:59:02.557Z,49.30
2018-10-15T22:01:30.897Z,49.50
2018-10-15T22:03:59.598Z,49.50
2018-10-15T22:06:27.933Z,49.40
2018-10-15T22:08:57.153Z,49.10
2018-10-15T22:11:25.595Z,49.30
2018-10-15T22:13:54.097Z,49.60
2018-10-15T22:16:23.004Z,49.70
2018-10-15T22:18:51.311Z,49.90
2018-10-15T22:21:19.734Z,49.90
2018-10-15T22:23:48.081Z,50.10
2018-10-15T22:26:18.022Z,50.00
2018-10-15T22:28:46.357Z,50.20
2018-10-15T22:31:15.873Z,50.30
2018-10-15T22:33:44.145Z,50.40
2018-10-15T22:36:13.521Z,50.50
2018-10-15T22:38:42.027Z,50.90
2018-10-15T22:41:10.865Z,50.90
2018-10-15T22:43:39.079Z,51.00
2018-10-15T22:46:07.299Z,51.20
2018-10-15T22:48:35.813Z,51.50
2018-10-15T22:51:04.041Z,51.50
2018-10-15T22:53:32.309Z,51.30
2018-10-15T22:56:00.484Z,51.30
2018-10-15T22:58:28.679Z,51.30
2018-10-15T23:00:56.837Z,51.30
2018-10-15T23:03:25.108Z,51.50
2018-10-15T23:05:53.335Z,51.60
2018-10-15T23:08:21.529Z,51.80
2018-10-15T23:11:04.446Z,51.50
2018-10-15T23:13:32.667Z,51.50
2018-10-15T23:16:01.017Z,51.60
2018-10-15T23:18:29.223Z,51.80
2018-10-15T23:20:57.403Z,51.90
2018-10-15T23:23:25.647Z,52.00
2018-10-15T23:25:53.828Z,52.00
2018-10-15T23:28:22.108Z,52.10
2018-10-15T23:30:54.551Z,52.00
2018-10-15T23:33:22.804Z,52.10
2018-10-15T23:35:50.957Z,52.10
2018-10-15T23:38:19.209Z,52.40
2018-10-15T23:43:15.355Z,86.60
2018-10-15T23:45:43.568Z,52.60
